sensor_id;sensor_type;location;lat;lon;timestamp;pressure;altitude;pressure_sealevel;temperature;humidity
52983;BME280;48698;45.736;13.926;2023-01-26T00:04:32;97504.69;;;0.19;100.00
52983;BME280;48698;45.736;13.926;2023-01-26T00:09:36;97729.38;;;1.56;100.00
52983;BME280;48698;45.736;13.926;2023-01-26T00:14:39;97620.53;;;0.84;100.00
52983;BME280;48698;45.736;13.926;2023-01-26T00:20:12;97709.88;;;1.19;100.00
52983;BME280;48698;45.736;13.926;2023-01-26T00:25:33;97647.97;;;1.18;100.00
52983;BME280;48698;45.736;13.926;2023-01-26T00:31:02;97663.75;;;1.12;100.00
52983;BME280;48698;45.736;13.926;2023-01-26T00:36:24;97653.34;;;1.08;100.00
52983;BME280;48698;45.736;13.926;2023-01-26T00:41:45;97750.13;;;1.70;100.00
52983;BME280;48698;45.736;13.926;2023-01-26T00:47:25;97725.06;;;1.52;100.00
52983;BME280;48698;45.736;13.926;2023-01-26T00:52:46;97749.44;;;1.58;100.00
52983;BME280;48698;45.736;13.926;2023-01-26T00:58:08;97738.25;;;1.46;100.00
52983;BME280;48698;45.736;13.926;2023-01-26T01:03:29;97662.00;;;1.11;100.00
52983;BME280;48698;45.736;13.926;2023-01-26T01:08:51;97735.53;;;1.55;100.00
52983;BME280;48698;45.736;13.926;2023-01-26T01:14:12;97620.41;;;0.93;100.00
52983;BME280;48698;45.736;13.926;2023-01-26T01:19:34;97663.66;;;1.18;100.00
52983;BME280;48698;45.736;13.926;2023-01-26T01:24:55;97715.75;;;1.35;100.00
52983;BME280;48698;45.736;13.926;2023-01-26T01:30:16;97635.22;;;0.94;100.00
52983;BME280;48698;45.736;13.926;2023-01-26T01:35:37;97712.13;;;1.45;100.00
52983;BME280;48698;45.736;13.926;2023-01-26T01:40:58;97716.50;;;1.43;100.00
52983;BME280;48698;45.736;13.926;2023-01-26T01:46:23;97739.94;;;1.50;100.00
52983;BME280;48698;45.736;13.926;2023-01-26T01:51:56;97687.94;;;1.26;100.00
52983;BME280;48698;45.736;13.926;2023-01-26T01:57:25;97727.69;;;1.52;100.00
52983;BME280;48698;45.736;13.926;2023-01-26T02:03:08;97607.63;;;0.70;100.00
52983;BME280;48698;45.736;13.926;2023-01-26T02:08:37;97618.69;;;0.92;100.00
52983;BME280;48698;45.736;13.926;2023-01-26T02:14:02;97704.38;;;1.37;100.00
52983;BME280;48698;45.736;13.926;2023-01-26T02:19:26;97708.66;;;1.41;100.00
52983;BME280;48698;45.736;13.926;2023-01-26T02:24:54;97700.94;;;1.34;100.00
52983;BME280;48698;45.736;13.926;2023-01-26T02:30:19;97679.94;;;1.37;100.00
52983;BME280;48698;45.736;13.926;2023-01-26T02:35:42;97603.91;;;0.89;100.00
52983;BME280;48698;45.736;13.926;2023-01-26T02:46:24;97631.16;;;1.33;100.00
52983;BME280;48698;45.736;13.926;2023-01-26T02:51:45;97654.69;;;1.36;100.00
52983;BME280;48698;45.736;13.926;2023-01-26T02:57:06;97611.25;;;1.23;100.00
52983;BME280;48698;45.736;13.926;2023-01-26T03:02:27;97575.94;;;0.93;100.00
52983;BME280;48698;45.736;13.926;2023-01-26T03:07:48;97565.44;;;0.99;100.00
52983;BME280;48698;45.736;13.926;2023-01-26T03:13:09;97612.06;;;1.28;100.00
52983;BME280;48698;45.736;13.926;2023-01-26T03:18:32;97537.78;;;0.81;100.00
52983;BME280;48698;45.736;13.926;2023-01-26T03:24:12;97523.91;;;0.76;100.00
52983;BME280;48698;45.736;13.926;2023-01-26T03:29:54;97580.03;;;1.12;100.00
52983;BME280;48698;45.736;13.926;2023-01-26T03:35:15;97536.56;;;1.05;100.00
52983;BME280;48698;45.736;13.926;2023-01-26T03:40:42;97470.03;;;0.68;100.00
52983;BME280;48698;45.736;13.926;2023-01-26T03:46:22;97551.19;;;1.18;100.00
52983;BME280;48698;45.736;13.926;2023-01-26T03:52:01;97492.78;;;0.63;100.00
52983;BME280;48698;45.736;13.926;2023-01-26T03:57:41;97546.00;;;1.14;100.00
52983;BME280;48698;45.736;13.926;2023-01-26T04:03:02;97545.19;;;1.10;100.00
52983;BME280;48698;45.736;13.926;2023-01-26T04:08:41;97544.31;;;1.13;100.00
52983;BME280;48698;45.736;13.926;2023-01-26T04:14:02;97443.03;;;0.69;100.00
52983;BME280;48698;45.736;13.926;2023-01-26T04:19:42;97440.56;;;0.58;100.00
52983;BME280;48698;45.736;13.926;2023-01-26T04:25:22;97501.84;;;0.94;100.00
52983;BME280;48698;45.736;13.926;2023-01-26T04:30:43;97484.63;;;0.82;100.00
52983;BME280;48698;45.736;13.926;2023-01-26T04:36:05;97505.41;;;0.90;100.00
52983;BME280;48698;45.736;13.926;2023-01-26T04:41:28;97507.84;;;1.00;100.00
52983;BME280;48698;45.736;13.926;2023-01-26T04:46:50;97336.44;;;-0.24;100.00
52983;BME280;48698;45.736;13.926;2023-01-26T04:52:11;97492.41;;;0.85;100.00
52983;BME280;48698;45.736;13.926;2023-01-26T04:57:32;97517.59;;;0.91;100.00
52983;BME280;48698;45.736;13.926;2023-01-26T05:02:53;97444.81;;;0.64;100.00
52983;BME280;48698;45.736;13.926;2023-01-26T05:08:14;97440.56;;;0.58;100.00
52983;BME280;48698;45.736;13.926;2023-01-26T05:13:35;97464.84;;;0.66;100.00
52983;BME280;48698;45.736;13.926;2023-01-26T05:18:57;97477.09;;;0.63;100.00
52983;BME280;48698;45.736;13.926;2023-01-26T05:24:18;97381.19;;;0.11;100.00
52983;BME280;48698;45.736;13.926;2023-01-26T05:29:39;97454.47;;;0.60;100.00
52983;BME280;48698;45.736;13.926;2023-01-26T05:35:01;97393.31;;;0.14;100.00
52983;BME280;48698;45.736;13.926;2023-01-26T05:40:22;97383.53;;;0.28;100.00
52983;BME280;48698;45.736;13.926;2023-01-26T05:45:44;97463.81;;;0.75;100.00
52983;BME280;48698;45.736;13.926;2023-01-26T05:51:06;97423.97;;;0.61;100.00
52983;BME280;48698;45.736;13.926;2023-01-26T05:56:26;97471.41;;;0.90;100.00
52983;BME280;48698;45.736;13.926;2023-01-26T06:01:48;97460.34;;;0.74;100.00
52983;BME280;48698;45.736;13.926;2023-01-26T06:07:10;97413.97;;;0.30;100.00
52983;BME280;48698;45.736;13.926;2023-01-26T06:12:33;97498.53;;;0.84;100.00
52983;BME280;48698;45.736;13.926;2023-01-26T06:17:55;97478.59;;;0.77;100.00
52983;BME280;48698;45.736;13.926;2023-01-26T06:23:16;97483.72;;;0.83;100.00
52983;BME280;48698;45.736;13.926;2023-01-26T06:28:37;97457.63;;;0.80;100.00
52983;BME280;48698;45.736;13.926;2023-01-26T06:33:58;97455.13;;;0.74;100.00
52983;BME280;48698;45.736;13.926;2023-01-26T06:39:19;97458.69;;;0.69;100.00
52983;BME280;48698;45.736;13.926;2023-01-26T06:44:40;97444.66;;;0.74;100.00
52983;BME280;48698;45.736;13.926;2023-01-26T06:50:01;97444.69;;;0.73;100.00
52983;BME280;48698;45.736;13.926;2023-01-26T06:55:51;97447.09;;;0.85;100.00
52983;BME280;48698;45.736;13.926;2023-01-26T07:01:18;97438.28;;;0.90;100.00
52983;BME280;48698;45.736;13.926;2023-01-26T07:06:40;97378.06;;;0.46;100.00
52983;BME280;48698;45.736;13.926;2023-01-26T07:12:01;97371.19;;;0.39;100.00
52983;BME280;48698;45.736;13.926;2023-01-26T07:17:22;97403.97;;;0.60;100.00
52983;BME280;48698;45.736;13.926;2023-01-26T07:22:43;97331.50;;;0.16;100.00
52983;BME280;48698;45.736;13.926;2023-01-26T07:28:04;97462.56;;;0.98;100.00
52983;BME280;48698;45.736;13.926;2023-01-26T07:33:27;97459.00;;;1.04;100.00
52983;BME280;48698;45.736;13.926;2023-01-26T07:38:48;97420.03;;;0.87;100.00
52983;BME280;48698;45.736;13.926;2023-01-26T07:44:09;97414.88;;;0.86;100.00
52983;BME280;48698;45.736;13.926;2023-01-26T07:49:30;97447.66;;;1.03;100.00
52983;BME280;48698;45.736;13.926;2023-01-26T07:54:52;97474.34;;;1.24;100.00
52983;BME280;48698;45.736;13.926;2023-01-26T08:00:13;97436.97;;;1.17;100.00
52983;BME280;48698;45.736;13.926;2023-01-26T08:05:34;97388.69;;;0.87;100.00
52983;BME280;48698;45.736;13.926;2023-01-26T08:10:59;97337.38;;;0.80;100.00
52983;BME280;48698;45.736;13.926;2023-01-26T08:16:20;97438.59;;;1.24;100.00
52983;BME280;48698;45.736;13.926;2023-01-26T08:21:42;97313.22;;;0.68;100.00
52983;BME280;48698;45.736;13.926;2023-01-26T08:27:03;97401.16;;;1.21;100.00
52983;BME280;48698;45.736;13.926;2023-01-26T08:32:24;97435.22;;;1.19;100.00
52983;BME280;48698;45.736;13.926;2023-01-26T08:37:45;97346.09;;;0.82;100.00
52983;BME280;48698;45.736;13.926;2023-01-26T08:43:06;97321.06;;;0.68;100.00
52983;BME280;48698;45.736;13.926;2023-01-26T08:48:27;97343.66;;;0.70;100.00
52983;BME280;48698;45.736;13.926;2023-01-26T08:53:51;97385.38;;;0.76;100.00
52983;BME280;48698;45.736;13.926;2023-01-26T08:59:14;97455.25;;;1.19;100.00
52983;BME280;48698;45.736;13.926;2023-01-26T09:04:35;97394.13;;;0.75;100.00
52983;BME280;48698;45.736;13.926;2023-01-26T09:09:56;97351.50;;;0.72;100.00
52983;BME280;48698;45.736;13.926;2023-01-26T09:15:17;97417.72;;;1.21;100.00
52983;BME280;48698;45.736;13.926;2023-01-26T09:20:40;97355.78;;;0.76;100.00
52983;BME280;48698;45.736;13.926;2023-01-26T09:26:02;97493.22;;;1.42;100.00
52983;BME280;48698;45.736;13.926;2023-01-26T09:31:23;97456.97;;;1.20;100.00
52983;BME280;48698;45.736;13.926;2023-01-26T09:36:27;97470.84;;;1.25;100.00
52983;BME280;48698;45.736;13.926;2023-01-26T09:41:57;97456.78;;;1.32;100.00
52983;BME280;48698;45.736;13.926;2023-01-26T09:47:10;97440.56;;;1.10;100.00
52983;BME280;48698;45.736;13.926;2023-01-26T09:52:54;97252.25;;;0.18;100.00
52983;BME280;48698;45.736;13.926;2023-01-26T09:58:06;97474.69;;;1.54;100.00
52983;BME280;48698;45.736;13.926;2023-01-26T10:03:28;97389.00;;;1.18;100.00
52983;BME280;48698;45.736;13.926;2023-01-26T10:08:33;97110.41;;;-0.33;100.00
52983;BME280;48698;45.736;13.926;2023-01-26T10:14:01;97471.16;;;2.01;100.00
52983;BME280;48698;45.736;13.926;2023-01-26T10:19:20;97341.06;;;1.18;100.00
52983;BME280;48698;45.736;13.926;2023-01-26T10:24:32;97430.50;;;2.22;100.00
52983;BME280;48698;45.736;13.926;2023-01-26T10:29:36;97333.44;;;1.90;100.00
52983;BME280;48698;45.736;13.926;2023-01-26T10:34:40;97391.78;;;1.98;100.00
52983;BME280;48698;45.736;13.926;2023-01-26T10:40:02;97373.56;;;2.30;100.00
52983;BME280;48698;45.736;13.926;2023-01-26T10:45:24;97404.41;;;2.56;100.00
52983;BME280;48698;45.736;13.926;2023-01-26T10:50:28;97399.19;;;2.56;100.00
52983;BME280;48698;45.736;13.926;2023-01-26T10:55:32;97317.94;;;2.19;100.00
52983;BME280;48698;45.736;13.926;2023-01-26T11:00:39;97315.63;;;2.42;100.00
52983;BME280;48698;45.736;13.926;2023-01-26T11:05:43;97331.81;;;2.24;100.00
52983;BME280;48698;45.736;13.926;2023-01-26T11:10:51;97225.16;;;1.55;100.00
52983;BME280;48698;45.736;13.926;2023-01-26T11:21:03;97326.53;;;2.61;100.00
52983;BME280;48698;45.736;13.926;2023-01-26T11:26:25;97299.13;;;2.39;100.00
52983;BME280;48698;45.736;13.926;2023-01-26T11:31:37;97312.66;;;2.56;100.00
52983;BME280;48698;45.736;13.926;2023-01-26T11:42:26;97242.00;;;2.18;100.00
52983;BME280;48698;45.736;13.926;2023-01-26T11:47:55;97218.84;;;2.01;100.00
52983;BME280;48698;45.736;13.926;2023-01-26T11:53:29;97325.94;;;2.50;100.00
52983;BME280;48698;45.736;13.926;2023-01-26T11:58:38;97317.31;;;2.80;100.00
52983;BME280;48698;45.736;13.926;2023-01-26T12:03:48;97299.91;;;2.76;100.00
52983;BME280;48698;45.736;13.926;2023-01-26T12:08:57;97186.41;;;2.40;100.00
52983;BME280;48698;45.736;13.926;2023-01-26T12:14:15;97064.84;;;1.47;100.00
52983;BME280;48698;45.736;13.926;2023-01-26T12:24:51;97152.50;;;2.34;100.00
52983;BME280;48698;45.736;13.926;2023-01-26T12:41:18;97261.88;;;2.94;100.00
52983;BME280;48698;45.736;13.926;2023-01-26T12:46:32;97237.28;;;2.98;100.00
52983;BME280;48698;45.736;13.926;2023-01-26T12:51:45;97145.34;;;2.07;100.00
52983;BME280;48698;45.736;13.926;2023-01-26T12:56:53;97258.75;;;2.80;100.00
52983;BME280;48698;45.736;13.926;2023-01-26T13:01:57;97206.66;;;2.68;100.00
52983;BME280;48698;45.736;13.926;2023-01-26T13:07:35;97247.91;;;2.59;100.00
52983;BME280;48698;45.736;13.926;2023-01-26T13:13:00;97202.09;;;2.42;100.00
52983;BME280;48698;45.736;13.926;2023-01-26T13:23:53;97202.69;;;2.84;100.00
52983;BME280;48698;45.736;13.926;2023-01-26T13:34:28;97231.31;;;2.60;100.00
52983;BME280;48698;45.736;13.926;2023-01-26T13:39:36;97233.56;;;2.40;100.00
52983;BME280;48698;45.736;13.926;2023-01-26T13:44:44;97212.34;;;2.51;100.00
52983;BME280;48698;45.736;13.926;2023-01-26T13:49:50;97191.09;;;2.28;100.00
52983;BME280;48698;45.736;13.926;2023-01-26T13:54:55;97237.75;;;2.47;100.00
52983;BME280;48698;45.736;13.926;2023-01-26T14:00:12;97150.84;;;1.96;100.00
52983;BME280;48698;45.736;13.926;2023-01-26T14:05:20;97234.31;;;2.45;100.00
52983;BME280;48698;45.736;13.926;2023-01-26T14:10:24;97122.09;;;1.60;100.00
52983;BME280;48698;45.736;13.926;2023-01-26T14:15:31;97255.75;;;2.27;100.00
52983;BME280;48698;45.736;13.926;2023-01-26T14:21:03;97237.78;;;2.12;100.00
52983;BME280;48698;45.736;13.926;2023-01-26T14:26:18;97245.78;;;2.06;100.00
52983;BME280;48698;45.736;13.926;2023-01-26T14:31:24;96999.50;;;0.34;100.00
52983;BME280;48698;45.736;13.926;2023-01-26T14:36:38;97169.28;;;1.56;100.00
52983;BME280;48698;45.736;13.926;2023-01-26T14:41:44;97182.44;;;1.55;100.00
52983;BME280;48698;45.736;13.926;2023-01-26T14:47:08;97177.38;;;1.83;100.00
52983;BME280;48698;45.736;13.926;2023-01-26T14:57:38;97141.38;;;1.57;100.00
52983;BME280;48698;45.736;13.926;2023-01-26T15:02:43;97178.00;;;1.92;100.00
52983;BME280;48698;45.736;13.926;2023-01-26T15:08:18;97150.00;;;1.61;100.00
52983;BME280;48698;45.736;13.926;2023-01-26T15:13:23;97031.47;;;0.85;100.00
52983;BME280;48698;45.736;13.926;2023-01-26T15:18:32;97071.16;;;1.02;100.00
52983;BME280;48698;45.736;13.926;2023-01-26T15:23:49;97123.44;;;1.42;100.00
52983;BME280;48698;45.736;13.926;2023-01-26T15:28:56;97155.09;;;1.67;100.00
52983;BME280;48698;45.736;13.926;2023-01-26T15:34:04;97175.94;;;1.70;100.00
52983;BME280;48698;45.736;13.926;2023-01-26T15:39:13;97158.97;;;1.50;100.00
52983;BME280;48698;45.736;13.926;2023-01-26T15:44:19;97149.44;;;1.48;100.00
52983;BME280;48698;45.736;13.926;2023-01-26T15:49:23;96848.13;;;-0.47;100.00
52983;BME280;48698;45.736;13.926;2023-01-26T15:54:27;97161.53;;;1.14;100.00
52983;BME280;48698;45.736;13.926;2023-01-26T15:59:31;96934.94;;;-0.41;100.00
52983;BME280;48698;45.736;13.926;2023-01-26T16:04:34;97128.66;;;0.62;100.00
52983;BME280;48698;45.736;13.926;2023-01-26T16:09:38;97051.19;;;0.20;100.00
52983;BME280;48698;45.736;13.926;2023-01-26T16:14:41;97006.81;;;0.17;100.00
52983;BME280;48698;45.736;13.926;2023-01-26T16:19:45;97101.47;;;0.71;100.00
52983;BME280;48698;45.736;13.926;2023-01-26T16:24:49;97077.44;;;0.53;100.00
52983;BME280;48698;45.736;13.926;2023-01-26T16:29:57;97144.00;;;0.79;100.00
52983;BME280;48698;45.736;13.926;2023-01-26T16:35:00;97135.38;;;0.75;100.00
52983;BME280;48698;45.736;13.926;2023-01-26T16:40:16;97189.28;;;1.21;100.00
52983;BME280;48698;45.736;13.926;2023-01-26T16:45:22;96958.97;;;-0.25;100.00
52983;BME280;48698;45.736;13.926;2023-01-26T16:50:26;97190.97;;;1.23;100.00
52983;BME280;48698;45.736;13.926;2023-01-26T16:55:43;97117.16;;;0.71;100.00
52983;BME280;48698;45.736;13.926;2023-01-26T17:00:47;97194.44;;;1.24;100.00
52983;BME280;48698;45.736;13.926;2023-01-26T17:05:51;97075.47;;;0.65;100.00
52983;BME280;48698;45.736;13.926;2023-01-26T17:10:55;97060.25;;;0.43;100.00
52983;BME280;48698;45.736;13.926;2023-01-26T17:16:04;97148.03;;;0.95;100.00
52983;BME280;48698;45.736;13.926;2023-01-26T17:21:08;97191.84;;;1.24;100.00
52983;BME280;48698;45.736;13.926;2023-01-26T17:26:13;97151.16;;;1.11;100.00
52983;BME280;48698;45.736;13.926;2023-01-26T17:31:20;97163.69;;;1.35;100.00
52983;BME280;48698;45.736;13.926;2023-01-26T17:36:30;97114.97;;;0.91;100.00
52983;BME280;48698;45.736;13.926;2023-01-26T17:41:33;97132.13;;;1.04;100.00
52983;BME280;48698;45.736;13.926;2023-01-26T17:46:37;97103.16;;;0.73;100.00
52983;BME280;48698;45.736;13.926;2023-01-26T17:51:40;96846.47;;;-0.53;100.00
52983;BME280;48698;45.736;13.926;2023-01-26T17:56:44;97148.16;;;1.29;100.00
52983;BME280;48698;45.736;13.926;2023-01-26T18:01:48;97100.47;;;0.76;100.00
52983;BME280;48698;45.736;13.926;2023-01-26T18:06:51;97183.25;;;1.19;100.00
52983;BME280;48698;45.736;13.926;2023-01-26T18:11:55;97202.34;;;1.22;100.00
52983;BME280;48698;45.736;13.926;2023-01-26T18:16:58;97031.41;;;0.49;100.00
52983;BME280;48698;45.736;13.926;2023-01-26T18:22:02;97179.69;;;1.21;100.00
52983;BME280;48698;45.736;13.926;2023-01-26T18:27:06;97099.50;;;0.82;100.00
52983;BME280;48698;45.736;13.926;2023-01-26T18:32:09;97158.78;;;1.20;100.00
52983;BME280;48698;45.736;13.926;2023-01-26T18:37:13;97012.81;;;0.22;100.00
52983;BME280;48698;45.736;13.926;2023-01-26T18:42:28;96965.19;;;0.11;100.00
52983;BME280;48698;45.736;13.926;2023-01-26T18:47:31;96839.75;;;-0.63;100.00
52983;BME280;48698;45.736;13.926;2023-01-26T18:52:35;97111.69;;;0.83;100.00
52983;BME280;48698;45.736;13.926;2023-01-26T18:57:39;97141.91;;;0.94;100.00
52983;BME280;48698;45.736;13.926;2023-01-26T19:02:42;97147.22;;;1.31;100.00
52983;BME280;48698;45.736;13.926;2023-01-26T19:07:46;97065.88;;;0.65;100.00
52983;BME280;48698;45.736;13.926;2023-01-26T19:12:49;97190.91;;;1.26;100.00
52983;BME280;48698;45.736;13.926;2023-01-26T19:17:53;97159.13;;;1.06;100.00
52983;BME280;48698;45.736;13.926;2023-01-26T19:22:56;97055.06;;;0.40;100.00
52983;BME280;48698;45.736;13.926;2023-01-26T19:28:00;97064.69;;;0.80;100.00
52983;BME280;48698;45.736;13.926;2023-01-26T19:33:04;97187.53;;;1.21;100.00
52983;BME280;48698;45.736;13.926;2023-01-26T19:38:36;97216.59;;;1.09;100.00
52983;BME280;48698;45.736;13.926;2023-01-26T19:43:51;97131.94;;;0.72;100.00
52983;BME280;48698;45.736;13.926;2023-01-26T19:48:55;97098.34;;;0.53;100.00
52983;BME280;48698;45.736;13.926;2023-01-26T19:53:58;97129.41;;;0.69;100.00
52983;BME280;48698;45.736;13.926;2023-01-26T19:59:04;97058.41;;;0.48;100.00
52983;BME280;48698;45.736;13.926;2023-01-26T20:04:12;97087.44;;;0.33;100.00
52983;BME280;48698;45.736;13.926;2023-01-26T20:09:16;97045.81;;;0.26;100.00
52983;BME280;48698;45.736;13.926;2023-01-26T20:14:19;97089.75;;;0.48;100.00
52983;BME280;48698;45.736;13.926;2023-01-26T20:19:28;97184.50;;;1.01;100.00
52983;BME280;48698;45.736;13.926;2023-01-26T20:24:34;97130.38;;;0.63;100.00
52983;BME280;48698;45.736;13.926;2023-01-26T20:29:37;97169.56;;;1.06;100.00
52983;BME280;48698;45.736;13.926;2023-01-26T20:34:46;97111.19;;;0.64;100.00
52983;BME280;48698;45.736;13.926;2023-01-26T20:39:49;97100.28;;;0.45;100.00
52983;BME280;48698;45.736;13.926;2023-01-26T20:44:53;97093.03;;;0.60;100.00
52983;BME280;48698;45.736;13.926;2023-01-26T20:49:58;97171.75;;;0.84;100.00
52983;BME280;48698;45.736;13.926;2023-01-26T20:55:02;97124.19;;;0.67;100.00
52983;BME280;48698;45.736;13.926;2023-01-26T21:00:07;97102.75;;;0.51;100.00
52983;BME280;48698;45.736;13.926;2023-01-26T21:05:11;97109.66;;;0.54;100.00
52983;BME280;48698;45.736;13.926;2023-01-26T21:10:15;97196.53;;;1.08;100.00
52983;BME280;48698;45.736;13.926;2023-01-26T21:15:18;97108.84;;;0.50;100.00
52983;BME280;48698;45.736;13.926;2023-01-26T21:20:22;97205.13;;;1.13;100.00
52983;BME280;48698;45.736;13.926;2023-01-26T21:25:25;97063.38;;;0.18;100.00
52983;BME280;48698;45.736;13.926;2023-01-26T21:30:29;97033.91;;;0.11;100.00
52983;BME280;48698;45.736;13.926;2023-01-26T21:35:32;97048.38;;;0.29;100.00
52983;BME280;48698;45.736;13.926;2023-01-26T21:40:36;96962.41;;;-0.23;100.00
52983;BME280;48698;45.736;13.926;2023-01-26T21:45:40;97165.59;;;0.87;100.00
52983;BME280;48698;45.736;13.926;2023-01-26T21:50:56;97160.44;;;0.84;100.00
52983;BME280;48698;45.736;13.926;2023-01-26T21:56:18;97171.03;;;0.76;100.00
52983;BME280;48698;45.736;13.926;2023-01-26T22:01:23;97207.28;;;0.94;100.00
52983;BME280;48698;45.736;13.926;2023-01-26T22:06:27;97201.13;;;0.97;100.00
52983;BME280;48698;45.736;13.926;2023-01-26T22:11:39;97174.34;;;0.86;100.00
52983;BME280;48698;45.736;13.926;2023-01-26T22:16:43;97086.34;;;0.43;100.00
52983;BME280;48698;45.736;13.926;2023-01-26T22:21:46;97124.59;;;0.49;100.00
52983;BME280;48698;45.736;13.926;2023-01-26T22:26:51;97172.50;;;0.91;100.00
52983;BME280;48698;45.736;13.926;2023-01-26T22:31:55;97160.63;;;0.75;100.00
52983;BME280;48698;45.736;13.926;2023-01-26T22:36:59;97093.03;;;0.60;100.00
52983;BME280;48698;45.736;13.926;2023-01-26T22:42:02;97033.56;;;0.29;100.00
52983;BME280;48698;45.736;13.926;2023-01-26T22:47:06;97111.25;;;0.61;100.00
52983;BME280;48698;45.736;13.926;2023-01-26T22:52:10;97068.00;;;0.46;100.00
52983;BME280;48698;45.736;13.926;2023-01-26T22:57:13;97062.38;;;0.23;100.00
52983;BME280;48698;45.736;13.926;2023-01-26T23:02:17;97090.34;;;0.61;100.00
52983;BME280;48698;45.736;13.926;2023-01-26T23:07:20;96986.47;;;-0.09;100.00
52983;BME280;48698;45.736;13.926;2023-01-26T23:12:23;97109.88;;;0.85;100.00
52983;BME280;48698;45.736;13.926;2023-01-26T23:17:27;97037.44;;;0.51;100.00
52983;BME280;48698;45.736;13.926;2023-01-26T23:22:31;97009.34;;;0.23;100.00
52983;BME280;48698;45.736;13.926;2023-01-26T23:27:34;96949.25;;;-0.19;100.00
52983;BME280;48698;45.736;13.926;2023-01-26T23:32:38;96819.81;;;-1.10;100.00
52983;BME280;48698;45.736;13.926;2023-01-26T23:37:51;97065.66;;;0.34;100.00
52983;BME280;48698;45.736;13.926;2023-01-26T23:43:06;97118.53;;;0.87;100.00
52983;BME280;48698;45.736;13.926;2023-01-26T23:48:18;97037.94;;;0.27;100.00
52983;BME280;48698;45.736;13.926;2023-01-26T23:53:32;97118.53;;;0.87;100.00
52983;BME280;48698;45.736;13.926;2023-01-26T23:58:36;97070.63;;;0.46;100.00
